KALS/ALS METAR and TAF weather

Enter ICAO airport designator
Station Type Date Time Source
KALS METAR 2019/02/20 22:52 UTC NOAA

KALS 202252Z AUTO 23009KT 10SM CLR M06/M13 A2967 RMK AO2 SLP122 T10561128


Station Type Date Time Source
KALS Decoded METAR 2019/02/20 22:52 UTC NOAA

SAN LUIS VALLEY REGIONAL, CO, United States (KALS) 37-26N 105-52W 2299M
Feb 20, 2019 - 05:52 PM EST / 2019.02.20 2252 UTC
Wind: from the SW (230 degrees) at 10 MPH (9 KT):0
Visibility: 10 mile(s):0
Sky conditions: clear
Temperature: 21.9 F (-5.6 C)
Windchill: 10 F (-12 C):1
Dew Point: 9.0 F (-12.8 C)
Relative Humidity: 56%
Pressure (altimeter): 29.67 in. Hg (1004 hPa)
ob: KALS 202252Z AUTO 23009KT 10SM CLR M06/M13 A2967 RMK AO2 SLP122 T10561128
cycle: 23

Station Type Date Time Source
KALS TAF 2019/02/20 23:36 UTC NOAA

TAF
AMD KALS 202233Z 2023/2118 21012KT P6SM SCT100
FM210200 VRB06KT P6SM SCT040 BKN100
FM211300 19010G20KT P6SM VCSH SCT020 BKN040


Example: see airport list